^^
Station Historical Data
Daily Summary for February 4, 2018 Units:  English    Metric   Both
« Previous Day
Next Day »
Daily Weekly Monthly Yearly Custom
  High: Low: Average:
Temperature: TemperatureC °F -13.4 °F -10.6 °F
Dew Point: DewpointC °F -14.7 °F -11.8 °F
Humidity: Humidity% 90% 91%
Wind Speed: WindSpeedKMHmph 0.0mph 3.5mph
Wind Gust: WindSpeedGustKMHmph - -
Wind- - NW
Pressure: PressurehPa in 1016.8 in -
Precipitation: 0.0 in    
Historical Graphs
 
 
Tabular Data for February 4, 2018
Time Temperature Dew Point Pressure Wind Wind Speed Wind Gust Humidity Rainfall Rate (Hourly) solar Conditions
TemperatureC °F DewpointC °F PressurehPa in Calm     Humidity% HourlyPrecipMM in SoftwareType W/m2 Conditions
00:03 -10.2 °F -11.2 °F 1016.8 in NE 1.9 mph 3.7 mph 92% 0.0 in WeatherDisplay:10.37 W/m2 FEW
00:08 -10.2 °F -11.2 °F 1016.8 in Calm   1.6 mph 92% 0.0 in WeatherDisplay:10.37 W/m2 FEW
00:13 -10.2 °F -11.2 °F 1016.8 in Calm     92% 0.0 in WeatherDisplay:10.37 W/m2 FEW
00:18 -10.2 °F -11.3 °F 1016.8 in Calm     92% 0.0 in WeatherDisplay:10.37 W/m2 FEW
00:23 -10.3 °F -11.3 °F 1016.8 in Calm     92% 0.0 in WeatherDisplay:10.37 W/m2 FEW
00:28 -10.3 °F -11.3 °F 1017.2 in NE 0.3 mph 3.7 mph 92% 0.0 in WeatherDisplay:10.37 W/m2 FEW
00:33 -10.3 °F -11.4 °F 1017.2 in NE 1.8 mph 5.6 mph 92% 0.0 in WeatherDisplay:10.37 W/m2 FEW
00:38 -10.5 °F -11.7 °F 1017.5 in Calm     91% 0.0 in WeatherDisplay:10.37 W/m2 FEW
00:43 -10.6 °F -11.8 °F 1017.5 in NNE 2.7 mph 9.3 mph 91% 0.0 in WeatherDisplay:10.37 W/m2 FEW
00:48 -10.7 °F -11.9 °F 1017.5 in Calm     91% 0.0 in WeatherDisplay:10.37 W/m2 FEW
00:53 -10.8 °F -11.8 °F 1017.5 in NNE 1.9 mph 7.4 mph 92% 0.0 in WeatherDisplay:10.37 W/m2 FEW
00:58 -10.8 °F -12.0 °F 1017.5 in North 1.0 mph 3.7 mph 91% 0.0 in WeatherDisplay:10.37 W/m2 FEW
01:03 -10.9 °F -12.1 °F 1017.5 in North 0.5 mph 3.7 mph 91% 0.0 in WeatherDisplay:10.37 W/m2 FEW
01:08 -10.9 °F -12.1 °F 1017.5 in North 0.8 mph 3.7 mph 91% 0.0 in WeatherDisplay:10.37 W/m2 FEW
01:13 -11.0 °F -12.2 °F 1017.8 in Calm     91% 0.0 in WeatherDisplay:10.37 W/m2 FEW
01:18 -11.0 °F -12.1 °F 1017.8 in Calm   1.9 mph 92% 0.0 in WeatherDisplay:10.37 W/m2 FEW
01:23 -11.0 °F -12.1 °F 1017.8 in NNW 0.5 mph 5.6 mph 92% 0.0 in WeatherDisplay:10.37 W/m2 FEW
01:28 -10.9 °F -12.0 °F 1017.8 in NNW 1.6 mph 5.6 mph 92% 0.0 in WeatherDisplay:10.37 W/m2 FEW
01:33 -10.9 °F -12.0 °F 1017.8 in North 2.9 mph 7.4 mph 92% 0.0 in WeatherDisplay:10.37 W/m2 FEW
01:38 -10.9 °F -11.9 °F 1018.2 in North 2.4 mph 5.6 mph 92% 0.0 in WeatherDisplay:10.37 W/m2 FEW
01:43 -10.9 °F -11.9 °F 1017.8 in Calm     92% 0.0 in WeatherDisplay:10.37 W/m2 FEW
01:48 -10.8 °F -11.9 °F 1018.2 in Calm     92% 0.0 in WeatherDisplay:10.37 W/m2 FEW
01:53 -10.8 °F -11.9 °F 1017.8 in Calm     92% 0.0 in WeatherDisplay:10.37 W/m2 FEW
01:58 -10.8 °F -11.9 °F 1018.2 in Calm     92% 0.0 in WeatherDisplay:10.37 W/m2 FEW
02:03 -10.8 °F -11.8 °F 1018.2 in NNE 1.9 mph 5.6 mph 92% 0.0 in WeatherDisplay:10.37 W/m2 FEW
02:08 -10.8 °F -11.8 °F 1018.2 in NNE 2.9 mph 5.6 mph 92% 0.0 in WeatherDisplay:10.37 W/m2 FEW
02:13 -10.8 °F -11.8 °F 1018.2 in NNE 0.2 mph 1.9 mph 92% 0.0 in WeatherDisplay:10.37 W/m2 FEW
02:18 -10.8 °F -11.8 °F 1018.2 in North 3.7 mph 13.0 mph 92% 0.0 in WeatherDisplay:10.37 W/m2 FEW
02:23 -10.7 °F -11.8 °F 1018.2 in North 0.8 mph 3.7 mph 92% 0.0 in WeatherDisplay:10.37 W/m2 FEW
02:28 -10.7 °F -11.8 °F 1018.5 in North 0.6 mph 1.9 mph 92% 0.0 in WeatherDisplay:10.37 W/m2 FEW
02:33 -10.7 °F -11.7 °F 1018.5 in North 1.6 mph 5.6 mph 92% 0.0 in WeatherDisplay:10.37 W/m2 FEW
02:38 -10.6 °F -11.6 °F 1018.5 in North 3.2 mph 5.6 mph 92% 0.0 in WeatherDisplay:10.37 W/m2 FEW
02:43 -10.4 °F -11.5 °F 1018.5 in NNW 2.6 mph 5.6 mph 92% 0.0 in WeatherDisplay:10.37 W/m2 FEW
02:48 -10.3 °F -11.4 °F 1018.5 in Calm     92% 0.0 in WeatherDisplay:10.37 W/m2 FEW
02:53 -10.3 °F -11.4 °F 1018.5 in NNW 3.4 mph 5.6 mph 92% 0.0 in WeatherDisplay:10.37 W/m2 FEW
02:58 -10.3 °F -11.3 °F 1018.5 in NNE 4.7 mph 9.3 mph 92% 0.0 in WeatherDisplay:10.37 W/m2 FEW
03:03 -10.2 °F -11.2 °F 1018.5 in NNE 1.0 mph 5.6 mph 92% 0.0 in WeatherDisplay:10.37 W/m2 FEW
03:08 -10.1 °F -11.2 °F 1018.5 in NNE 2.1 mph 5.6 mph 92% 0.0 in WeatherDisplay:10.37 W/m2 FEW
03:13 -10.2 °F -11.2 °F 1018.5 in North 3.4 mph 5.6 mph 92% 0.0 in WeatherDisplay:10.37 W/m2 FEW
03:18 -10.2 °F -11.3 °F 1018.5 in NNW 1.8 mph 3.7 mph 92% 0.0 in WeatherDisplay:10.37 W/m2 FEW
03:23 -10.3 °F -11.3 °F 1018.5 in North 6.4 mph 14.8 mph 92% 0.0 in WeatherDisplay:10.37 W/m2 FEW
03:28 -10.3 °F -11.4 °F 1018.5 in North 3.7 mph 5.6 mph 92% 0.0 in WeatherDisplay:10.37 W/m2 FEW
03:33 -10.4 °F -11.4 °F 1018.5 in Calm     92% 0.0 in WeatherDisplay:10.37 W/m2 FEW
03:38 -10.6 °F -11.7 °F 1018.8 in Calm     91% 0.0 in WeatherDisplay:10.37 W/m2 FEW
03:43 -10.6 °F -11.8 °F 1018.8 in North 1.8 mph 3.7 mph 91% 0.0 in WeatherDisplay:10.37 W/m2 FEW
03:48 -10.7 °F -11.9 °F 1018.8 in ENE 0.8 mph 5.6 mph 91% 0.0 in WeatherDisplay:10.37 W/m2 FEW
03:53 -10.8 °F -12.0 °F 1018.8 in NE 0.8 mph 3.7 mph 91% 0.0 in WeatherDisplay:10.37 W/m2 FEW
03:58 -10.9 °F -12.1 °F 1018.8 in Calm     91% 0.0 in WeatherDisplay:10.37 W/m2 FEW
04:03 -10.9 °F -12.1 °F 1019.2 in Calm     91% 0.0 in WeatherDisplay:10.37 W/m2 FEW
04:08 -11.1 °F -12.2 °F 1019.2 in North 4.0 mph 7.4 mph 91% 0.0 in WeatherDisplay:10.37 W/m2 FEW
04:13 -11.2 °F -12.3 °F 1019.2 in North 0.5 mph 3.7 mph 91% 0.0 in WeatherDisplay:10.37 W/m2 FEW
04:18 -11.2 °F -12.4 °F 1019.2 in Calm     91% 0.0 in WeatherDisplay:10.37 W/m2 FEW
04:23 -11.3 °F -12.4 °F 1019.2 in Calm     91% 0.0 in WeatherDisplay:10.37 W/m2 FEW
04:28 -11.4 °F -12.6 °F 1019.5 in North 2.1 mph 5.6 mph 91% 0.0 in WeatherDisplay:10.37 W/m2 FEW
04:33 -11.4 °F -12.6 °F 1019.5 in NNW 1.3 mph 8.0 mph 91% 0.0 in WeatherDisplay:10.37 W/m2 FEW
04:38 -11.6 °F -12.7 °F 1019.5 in NNW 3.7 mph 7.4 mph 91% 0.0 in WeatherDisplay:10.37 W/m2 FEW
04:43 -11.6 °F -12.8 °F 1019.5 in Calm   1.9 mph 91% 0.0 in WeatherDisplay:10.37 W/m2 FEW
04:48 -11.7 °F -12.8 °F 1019.9 in NNW 3.9 mph 5.6 mph 91% 0.0 in WeatherDisplay:10.37 W/m2 FEW
04:53 -11.7 °F -12.9 °F 1019.9 in NNW 0.8 mph 3.7 mph 91% 0.0 in WeatherDisplay:10.37 W/m2 FEW
04:58 -11.8 °F -12.9 °F 1019.9 in Calm     91% 0.0 in WeatherDisplay:10.37 W/m2 FEW
05:03 -11.9 °F -13.1 °F 1020.2 in North 2.1 mph 5.6 mph 91% 0.0 in WeatherDisplay:10.37 W/m2 FEW
05:08 -12.0 °F -13.2 °F 1020.2 in Calm     91% 0.0 in WeatherDisplay:10.37 W/m2 FEW
05:13 -12.1 °F -13.2 °F 1020.2 in Calm   1.9 mph 91% 0.0 in WeatherDisplay:10.37 W/m2 FEW
05:18 -12.2 °F -13.3 °F 1019.9 in Calm   1.9 mph 91% 0.0 in WeatherDisplay:10.37 W/m2 FEW
05:23 -12.2 °F -13.4 °F 1019.9 in NW 1.3 mph 5.6 mph 91% 0.0 in WeatherDisplay:10.37 W/m2 FEW
05:28 -12.3 °F -13.4 °F 1020.2 in Calm     91% 0.0 in WeatherDisplay:10.37 W/m2 FEW
05:33 -12.3 °F -13.5 °F 1020.2 in Calm     91% 0.0 in WeatherDisplay:10.37 W/m2 FEW
05:38 -12.3 °F -13.5 °F 1020.2 in NW 1.0 mph 5.6 mph 91% 0.0 in WeatherDisplay:10.37 W/m2 FEW
05:43 -12.4 °F -13.6 °F 1020.2 in Calm     91% 0.0 in WeatherDisplay:10.37 W/m2 FEW
05:48 -12.5 °F -13.7 °F 1020.2 in Calm     91% 0.0 in WeatherDisplay:10.37 W/m2 FEW
05:53 -12.6 °F -13.7 °F 1020.2 in Calm     91% 0.0 in WeatherDisplay:10.37 W/m2 FEW
05:58 -12.6 °F -13.8 °F 1020.2 in Calm     91% 0.0 in WeatherDisplay:10.37 W/m2 FEW
06:03 -12.7 °F -13.8 °F 1020.2 in NNW 0.2 mph 1.9 mph 91% 0.0 in WeatherDisplay:10.37 W/m2 FEW
06:08 -12.7 °F -13.9 °F 1020.5 in Calm     91% 0.0 in WeatherDisplay:10.37 W/m2 FEW
06:13 -12.8 °F -13.9 °F 1020.5 in NNW 0.6 mph 3.7 mph 91% 0.0 in WeatherDisplay:10.37 W/m2 FEW
06:18 -12.8 °F -14.0 °F 1020.5 in NNW 4.0 mph 9.3 mph 91% 0.0 in WeatherDisplay:10.37 W/m2 FEW
06:23 -12.8 °F -14.0 °F 1020.5 in NNW 2.1 mph 5.6 mph 91% 0.0 in WeatherDisplay:10.37 W/m2 FEW
06:28 -12.8 °F -14.0 °F 1020.9 in NNW 1.1 mph 5.6 mph 91% 0.0 in WeatherDisplay:10.37 W/m2 FEW
06:33 -12.9 °F -14.1 °F 1020.9 in NNW 1.1 mph 4.8 mph 91% 0.0 in WeatherDisplay:10.37 W/m2 FEW
06:38 -12.9 °F -14.1 °F 1020.9 in NNW 0.5 mph 3.7 mph 91% 0.0 in WeatherDisplay:10.37 W/m2 FEW
06:43 -12.9 °F -14.1 °F 1020.9 in Calm     91% 0.0 in WeatherDisplay:10.37 W/m2 FEW
06:48 -12.9 °F -14.1 °F 1021.2 in Calm   1.9 mph 91% 0.0 in WeatherDisplay:10.37 W/m2 FEW
06:53 -13.0 °F -14.2 °F 1020.9 in Calm     91% 0.0 in WeatherDisplay:10.37 W/m2 FEW
06:58 -13.1 °F -14.3 °F 1021.2 in Calm     90% 0.0 in WeatherDisplay:10.37 W/m2 FEW
07:03 -13.1 °F -14.3 °F 1021.2 in Calm     91% 0.0 in WeatherDisplay:10.37 W/m2 FEW
07:08 -13.2 °F -14.3 °F 1021.2 in North 2.3 mph 5.6 mph 91% 0.0 in WeatherDisplay:10.37 W/m2 FEW
07:13 -13.2 °F -14.3 °F 1021.2 in Calm     91% 0.0 in WeatherDisplay:10.37 W/m2 FEW
07:18 -13.2 °F -14.4 °F 1021.2 in Calm     91% 0.0 in WeatherDisplay:10.37 W/m2 FEW
07:23 -13.2 °F -14.5 °F 1021.2 in NNW 2.4 mph 5.6 mph 90% 0.0 in WeatherDisplay:10.37 W/m2 FEW
07:28 -13.3 °F -14.6 °F 1021.2 in Calm     90% 0.0 in WeatherDisplay:10.37 W/m2 FEW
07:33 -13.3 °F -14.6 °F 1021.2 in Calm     90% 0.0 in WeatherDisplay:10.37 W/m2 FEW
07:38 -13.3 °F -14.6 °F 1021.6 in Calm     90% 0.0 in WeatherDisplay:10.37 W/m2 FEW
07:43 -13.4 °F -14.7 °F 1021.6 in NNW 2.6 mph 7.4 mph 90% 0.0 in WeatherDisplay:10.37 W/m2 FEW
07:48 -13.3 °F -14.5 °F 1021.6 in Calm   1.9 mph 91% 0.0 in WeatherDisplay:10.37 W/m2 FEW
07:53 -13.3 °F -14.4 °F 1021.6 in Calm     91% 0.0 in WeatherDisplay:10.37 W/m2 FEW
07:58 -13.3 °F -14.4 °F 1021.6 in Calm     91% 0.0 in WeatherDisplay:10.37 W/m2 FEW
08:03 -13.3 °F -14.4 °F 1021.6 in NNW 0.2 mph 1.9 mph 91% 0.0 in WeatherDisplay:10.37 W/m2 FEW
08:08 -13.3 °F -14.4 °F 1021.6 in NNW 1.1 mph 5.6 mph 91% 0.0 in WeatherDisplay:10.37 W/m2 FEW
08:13 -13.3 °F -14.4 °F 1021.9 in NE 1.6 mph 5.6 mph 91% 0.0 in WeatherDisplay:10.37 W/m2 FEW
08:18 -13.3 °F -14.4 °F 1021.9 in Calm     91% 0.0 in WeatherDisplay:10.37 W/m2 FEW
08:23 -13.2 °F -14.4 °F 1021.9 in NNW 1.8 mph 5.6 mph 91% 0.0 in WeatherDisplay:10.37 W/m2 FEW
08:28 -13.2 °F -14.4 °F 1021.9 in Calm   1.9 mph 91% 0.0 in WeatherDisplay:10.37 W/m2 FEW
08:33 -13.3 °F -14.6 °F 1022.2 in Calm     90% 0.0 in WeatherDisplay:10.37 W/m2 FEW
08:38 -13.2 °F -14.5 °F 1022.2 in Calm   1.6 mph 90% 0.0 in WeatherDisplay:10.37 W/m2 FEW
08:43 -13.2 °F -14.5 °F 1022.2 in North 1.9 mph 5.6 mph 90% 0.0 in WeatherDisplay:10.37 W/m2 FEW
08:48 -13.2 °F -14.5 °F 1022.2 in Calm     90% 0.0 in WeatherDisplay:10.37 W/m2 FEW
08:53 -13.2 °F -14.4 °F 1022.2 in Calm     91% 0.0 in WeatherDisplay:10.37 W/m2 FEW
08:58 -13.2 °F -14.4 °F 1022.6 in NNW 1.4 mph 3.7 mph 91% 0.0 in WeatherDisplay:10.37 W/m2 FEW
09:03 -13.2 °F -14.3 °F 1022.6 in NNW 2.6 mph 9.3 mph 91% 0.0 in WeatherDisplay:10.37 W/m2 FEW
09:08 -13.1 °F -14.3 °F 1022.9 in NNW 2.7 mph 9.3 mph 91% 0.0 in WeatherDisplay:10.37 W/m2 FEW
09:13 -13.1 °F -14.3 °F 1022.9 in NNW 4.7 mph 9.3 mph 91% 0.0 in WeatherDisplay:10.37 W/m2 FEW
09:18 -13.1 °F -14.2 °F 1022.9 in NNW 4.7 mph 7.4 mph 91% 0.0 in WeatherDisplay:10.37 W/m2 FEW
09:23 -12.9 °F -14.1 °F 1023.2 in NNW 5.8 mph 13.0 mph 91% 0.0 in WeatherDisplay:10.37 W/m2 FEW
09:28 -12.8 °F -14.0 °F 1023.2 in NNW 1.0 mph 5.6 mph 91% 0.0 in WeatherDisplay:10.37 W/m2 FEW
09:33 -12.8 °F -13.9 °F 1023.2 in NW 2.9 mph 5.6 mph 91% 0.0 in WeatherDisplay:10.37 W/m2 FEW
09:38 -12.7 °F -13.9 °F 1023.2 in NW 2.3 mph 5.6 mph 91% 0.0 in WeatherDisplay:10.37 W/m2 FEW
09:43 -12.7 °F -13.9 °F 1023.2 in NNW 1.6 mph 3.7 mph 91% 0.0 in WeatherDisplay:10.37 W/m2 FEW
09:48 -12.6 °F -13.8 °F 1023.2 in NW 1.1 mph 5.6 mph 91% 0.0 in WeatherDisplay:10.37 W/m2 FEW
09:53 -12.6 °F -13.7 °F 1023.2 in Calm     91% 0.0 in WeatherDisplay:10.37 W/m2 FEW
09:58 -12.4 °F -13.6 °F 1023.2 in NNW 4.3 mph 7.4 mph 91% 0.0 in WeatherDisplay:10.37 W/m2 FEW
10:03 -12.4 °F -13.6 °F 1023.2 in NW 4.7 mph 11.3 mph 91% 0.0 in WeatherDisplay:10.37 W/m2 FEW
10:08 -12.3 °F -13.4 °F 1023.6 in NNW 4.0 mph 9.3 mph 91% 0.0 in WeatherDisplay:10.37 W/m2 FEW
10:13 -12.2 °F -13.4 °F 1023.6 in NNW 4.7 mph 7.4 mph 91% 0.0 in WeatherDisplay:10.37 W/m2 FEW
10:18 -12.2 °F -13.3 °F 1023.6 in NNW 5.0 mph 9.3 mph 91% 0.0 in WeatherDisplay:10.37 W/m2 FEW
10:23 -12.1 °F -13.2 °F 1023.9 in NNW 3.4 mph 9.3 mph 91% 0.0 in WeatherDisplay:10.37 W/m2 FEW
10:28 -11.9 °F -13.1 °F 1023.6 in NNW 0.2 mph 5.6 mph 91% 0.0 in WeatherDisplay:10.37 W/m2 FEW
10:33 -11.8 °F -13.0 °F 1023.9 in North 5.0 mph 5.6 mph 91% 0.0 in WeatherDisplay:10.37 W/m2 FEW
10:38 -11.7 °F -12.9 °F 1023.9 in NNW 4.5 mph 7.4 mph 91% 0.0 in WeatherDisplay:10.37 W/m2 FEW
10:43 -11.6 °F -12.8 °F 1023.9 in NNW 2.9 mph 6.4 mph 91% 0.0 in WeatherDisplay:10.37 W/m2 FEW
10:48 -11.5 °F -12.7 °F 1023.9 in NNW 5.3 mph 8.0 mph 91% 0.0 in WeatherDisplay:10.37 W/m2 FEW
10:53 -11.4 °F -12.6 °F 1023.9 in NNW 4.8 mph 9.3 mph 91% 0.0 in WeatherDisplay:10.37 W/m2 FEW
10:58 -11.3 °F -12.4 °F 1023.9 in NNW 3.4 mph 9.3 mph 91% 0.0 in WeatherDisplay:10.37 W/m2 FEW
11:04 -11.1 °F -12.3 °F 1023.9 in NW 9.8 mph 16.7 mph 91% 0.0 in WeatherDisplay:10.37 W/m2 FEW
11:09 -10.9 °F -12.1 °F 1023.9 in NNW 3.7 mph 7.4 mph 91% 0.0 in WeatherDisplay:10.37 W/m2 FEW
11:14 -10.8 °F -11.9 °F 1023.9 in NNW 7.1 mph 16.7 mph 91% 0.0 in WeatherDisplay:10.37 W/m2 FEW
11:19 -10.7 °F -11.8 °F 1023.9 in NNW 2.3 mph 5.6 mph 91% 0.0 in WeatherDisplay:10.37 W/m2 FEW
11:24 -10.6 °F -11.7 °F 1023.9 in NNW 2.1 mph 6.4 mph 91% 0.0 in WeatherDisplay:10.37 W/m2 FEW
11:29 -10.4 °F -11.6 °F 1023.9 in NNW 0.2 mph 13.0 mph 91% 0.0 in WeatherDisplay:10.37 W/m2 FEW
11:35 -10.3 °F -11.4 °F 1023.9 in NNW 0.2 mph 5.6 mph 91% 0.0 in WeatherDisplay:10.37 W/m2 FEW
11:40 -10.2 °F -11.3 °F 1023.9 in NNW 5.6 mph 7.4 mph 91% 0.0 in WeatherDisplay:10.37 W/m2 FEW
11:45 -10.0 °F -11.2 °F 1023.9 in NW 3.7 mph 13.0 mph 91% 0.0 in WeatherDisplay:10.37 W/m2 FEW
11:50 -9.8 °F -11.0 °F 1023.9 in NNW 4.0 mph 7.4 mph 91% 0.0 in WeatherDisplay:10.37 W/m2 FEW
11:55 -9.7 °F -10.9 °F 1023.9 in NNW 6.1 mph 13.0 mph 91% 0.0 in WeatherDisplay:10.37 W/m2 FEW
12:00 -9.6 °F -10.8 °F 1023.9 in NW 4.3 mph 14.8 mph 91% 0.0 in WeatherDisplay:10.37 W/m2 FEW
12:05 -9.4 °F -10.7 °F 1023.9 in NW 1.8 mph 3.2 mph 91% 0.0 in WeatherDisplay:10.37 W/m2 FEW
12:10 -9.3 °F -10.6 °F 1023.9 in North 1.9 mph 5.6 mph 91% 0.0 in WeatherDisplay:10.37 W/m2 FEW
12:15 -9.3 °F -10.7 °F 1023.9 in NNW 4.3 mph 13.0 mph 90% 0.0 in WeatherDisplay:10.37 W/m2 FEW
12:20 -9.3 °F -10.6 °F 1023.9 in NNE 1.3 mph 5.6 mph 90% 0.0 in WeatherDisplay:10.37 W/m2 FEW
12:25 -9.2 °F -10.6 °F 1023.9 in NNW 5.1 mph 9.3 mph 90% 0.0 in WeatherDisplay:10.37 W/m2 FEW
12:30 -9.2 °F -10.5 °F 1023.9 in NNW 2.9 mph 7.4 mph 90% 0.0 in WeatherDisplay:10.37 W/m2 FEW
12:35 -9.1 °F -10.3 °F 1024.3 in NNW 1.4 mph 7.4 mph 91% 0.0 in WeatherDisplay:10.37 W/m2 FEW
12:40 -9.1 °F -10.4 °F 1023.9 in NNW 5.1 mph 5.6 mph 90% 0.0 in WeatherDisplay:10.37 W/m2 FEW
12:45 -9.1 °F -10.4 °F 1023.9 in NNW 1.0 mph 7.4 mph 90% 0.0 in WeatherDisplay:10.37 W/m2 FEW
12:50 -9.0 °F -10.3 °F 1024.3 in NNW 7.6 mph 18.5 mph 90% 0.0 in WeatherDisplay:10.37 W/m2 FEW
12:55 -8.9 °F -10.2 °F 1024.3 in NNW 3.2 mph 7.4 mph 90% 0.0 in WeatherDisplay:10.37 W/m2 FEW
13:00 -8.8 °F -10.2 °F 1024.3 in NNW 6.0 mph 14.8 mph 90% 0.0 in WeatherDisplay:10.37 W/m2 FEW
13:05 -8.8 °F -10.1 °F 1024.3 in NNW 2.1 mph 14.8 mph 90% 0.0 in WeatherDisplay:10.37 W/m2 FEW
13:10 -8.7 °F -10.1 °F 1024.3 in NW 7.1 mph 8.0 mph 90% 0.0 in WeatherDisplay:10.37 W/m2 FEW
13:15 -8.7 °F -10.1 °F 1024.3 in NNW 0.5 mph 1.6 mph 90% 0.0 in WeatherDisplay:10.37 W/m2 FEW
13:20 -8.7 °F -10.1 °F 1024.3 in NNW 6.4 mph 13.0 mph 90% 0.0 in WeatherDisplay:10.37 W/m2 FEW
13:25 -8.7 °F -10.0 °F 1024.3 in NNW 0.5 mph 8.0 mph 90% 0.0 in WeatherDisplay:10.37 W/m2 FEW
13:30 -8.6 °F -9.9 °F 1024.3 in NNW 4.2 mph 6.4 mph 90% 0.0 in WeatherDisplay:10.37 W/m2 FEW
13:35 -8.5 °F -9.8 °F 1024.3 in NNW 9.2 mph 16.7 mph 90% 0.0 in WeatherDisplay:10.37 W/m2 FEW
13:40 -8.4 °F -9.8 °F 1024.3 in NNW 3.7 mph 5.6 mph 90% 0.0 in WeatherDisplay:10.37 W/m2 FEW
13:45 -8.4 °F -9.8 °F 1024.3 in NNW 5.8 mph 14.8 mph 90% 0.0 in WeatherDisplay:10.37 W/m2 FEW
13:50 -8.4 °F -9.7 °F 1024.3 in NNW 4.8 mph 9.3 mph 90% 0.0 in WeatherDisplay:10.37 W/m2 FEW
13:55 -8.3 °F -9.7 °F 1024.3 in NW 3.9 mph 5.6 mph 90% 0.0 in WeatherDisplay:10.37 W/m2 FEW
14:00 -8.3 °F -9.7 °F 1024.3 in NW 6.0 mph 9.3 mph 90% 0.0 in WeatherDisplay:10.37 W/m2 FEW
14:05 -8.2 °F -9.6 °F 1024.6 in NW 8.0 mph 16.7 mph 90% 0.0 in WeatherDisplay:10.37 W/m2 FEW
14:10 -8.2 °F -9.6 °F 1024.6 in NNW 9.0 mph 9.0 mph 90% 0.0 in WeatherDisplay:10.37 W/m2 FEW
14:15 -8.2 °F -9.5 °F 1024.6 in NNW 6.9 mph 9.3 mph 90% 0.0 in WeatherDisplay:10.37 W/m2 FEW
14:20 -8.1 °F -9.4 °F 1024.6 in NNW 4.0 mph 13.0 mph 90% 0.0 in WeatherDisplay:10.37 W/m2 FEW
14:25 -8.1 °F -9.4 °F 1024.6 in NNW 4.3 mph 7.4 mph 90% 0.0 in WeatherDisplay:10.37 W/m2 FEW
14:30 -8.0 °F -9.3 °F 1024.6 in NNW 3.4 mph 7.4 mph 90% 0.0 in WeatherDisplay:10.37 W/m2 FEW
14:35 -7.9 °F -9.3 °F 1024.6 in NW 6.1 mph 16.7 mph 90% 0.0 in WeatherDisplay:10.37 W/m2 FEW
14:39 -7.9 °F -9.3 °F 1024.6 in NW 1.4 mph 9.3 mph 90% 0.0 in WeatherDisplay:10.37 W/m2 FEW
14:44 -7.9 °F -9.3 °F 1024.6 in NW 5.8 mph 7.4 mph 90% 0.0 in WeatherDisplay:10.37 W/m2 FEW
14:49 -7.9 °F -9.2 °F 1024.9 in NNW 1.1 mph   90% 0.0 in WeatherDisplay:10.37 W/m2 FEW
14:54 -7.9 °F -9.2 °F 1024.9 in NNW 4.3 mph 13.0 mph 90% 0.0 in WeatherDisplay:10.37 W/m2 FEW
14:59 -7.9 °F -9.2 °F 1024.9 in NNW 1.6 mph 16.7 mph 90% 0.0 in WeatherDisplay:10.37 W/m2 FEW
15:04 -7.8 °F -9.2 °F 1024.9 in NNW 5.5 mph 5.6 mph 90% 0.0 in WeatherDisplay:10.37 W/m2 FEW
15:09 -7.8 °F -9.2 °F 1024.9 in NNW 7.6 mph 13.0 mph 90% 0.0 in WeatherDisplay:10.37 W/m2 FEW
15:14 -7.8 °F -9.2 °F 1024.9 in NNW 3.2 mph 5.6 mph 90% 0.0 in WeatherDisplay:10.37 W/m2 FEW
15:19 -7.9 °F -9.2 °F 1024.9 in NNW 3.7 mph 13.0 mph 90% 0.0 in WeatherDisplay:10.37 W/m2 FEW
15:24 -7.9 °F -9.3 °F 1024.9 in NW 7.2 mph 14.8 mph 90% 0.0 in WeatherDisplay:10.37 W/m2 FEW
15:29 -8.0 °F -9.3 °F 1024.9 in NNW 5.5 mph 7.4 mph 90% 0.0 in WeatherDisplay:10.37 W/m2 FEW
15:34 -8.1 °F -9.4 °F 1024.9 in NNW 4.5 mph 7.4 mph 90% 0.0 in WeatherDisplay:10.37 W/m2 FEW
15:39 -8.2 °F -9.5 °F 1024.9 in NNW 4.5 mph 7.4 mph 90% 0.0 in WeatherDisplay:10.37 W/m2 FEW
15:44 -8.2 °F -9.6 °F 1024.9 in NNW 7.2 mph 14.8 mph 90% 0.0 in WeatherDisplay:10.37 W/m2 FEW
15:49 -8.3 °F -9.6 °F 1024.9 in NNW 2.9 mph 7.4 mph 90% 0.0 in WeatherDisplay:10.37 W/m2 FEW
15:54 -8.3 °F -9.7 °F 1025.3 in NNW 5.1 mph 14.8 mph 90% 0.0 in WeatherDisplay:10.37 W/m2 FEW
15:59 -8.4 °F -9.8 °F 1025.3 in NNW 5.5 mph 7.4 mph 90% 0.0 in WeatherDisplay:10.37 W/m2 FEW
16:04 -8.5 °F -9.8 °F 1025.3 in NNW 5.5 mph 7.4 mph 90% 0.0 in WeatherDisplay:10.37 W/m2 FEW
16:09 -8.6 °F -9.9 °F 1025.3 in NNW 3.9 mph 5.6 mph 90% 0.0 in WeatherDisplay:10.37 W/m2 FEW
16:14 -8.7 °F -10.0 °F 1025.3 in NNW 2.4 mph 9.3 mph 90% 0.0 in WeatherDisplay:10.37 W/m2 FEW
16:19 -8.7 °F -10.1 °F 1025.3 in NNW 1.4 mph 5.6 mph 90% 0.0 in WeatherDisplay:10.37 W/m2 FEW
16:24 -8.8 °F -10.2 °F 1025.3 in NNW 2.3 mph 5.6 mph 90% 0.0 in WeatherDisplay:10.37 W/m2 FEW
16:29 -8.9 °F -10.2 °F 1025.3 in NW 7.6 mph 9.3 mph 90% 0.0 in WeatherDisplay:10.37 W/m2 FEW
16:34 -8.9 °F -10.2 °F 1025.6 in NNW 2.6 mph 9.3 mph 91% 0.0 in WeatherDisplay:10.37 W/m2 FEW
16:39 -9.0 °F -10.2 °F 1025.6 in NNW 5.5 mph 9.7 mph 91% 0.0 in WeatherDisplay:10.37 W/m2 FEW
16:44 -9.1 °F -10.3 °F 1025.6 in NNW 3.5 mph 5.6 mph 91% 0.0 in WeatherDisplay:10.37 W/m2 FEW
16:49 -9.1 °F -10.3 °F 1025.6 in NW 6.3 mph 14.8 mph 91% 0.0 in WeatherDisplay:10.37 W/m2 FEW
16:54 -9.2 °F -10.4 °F 1025.6 in NNW 7.7 mph 7.7 mph 91% 0.0 in WeatherDisplay:10.37 W/m2 FEW
16:59 -9.2 °F -10.4 °F 1025.6 in NNW 6.3 mph 13.0 mph 91% 0.0 in WeatherDisplay:10.37 W/m2 FEW
17:04 -9.3 °F -10.6 °F 1025.6 in NNW 4.2 mph 13.0 mph 90% 0.0 in WeatherDisplay:10.37 W/m2 FEW
17:09 -9.4 °F -10.6 °F 1025.6 in North 3.4 mph 5.6 mph 91% 0.0 in WeatherDisplay:10.37 W/m2 FEW
17:14 -9.5 °F -10.8 °F 1026.0 in NNW 8.7 mph 16.7 mph 90% 0.0 in WeatherDisplay:10.37 W/m2 FEW
17:19 -9.6 °F -10.8 °F 1026.0 in NNW 5.8 mph 14.8 mph 91% 0.0 in WeatherDisplay:10.37 W/m2 FEW
17:24 -9.7 °F -10.8 °F 1026.0 in NNW 5.3 mph 14.8 mph 91% 0.0 in WeatherDisplay:10.37 W/m2 FEW
17:29 -9.7 °F -10.9 °F 1026.0 in NNW 8.7 mph 16.7 mph 91% 0.0 in WeatherDisplay:10.37 W/m2 FEW
17:34 -9.8 °F -10.9 °F 1026.0 in NNW 7.6 mph 9.3 mph 91% 0.0 in WeatherDisplay:10.37 W/m2 FEW
17:39 -9.8 °F -11.0 °F 1026.0 in NNW 4.0 mph 5.6 mph 91% 0.0 in WeatherDisplay:10.37 W/m2 FEW
17:44 -9.9 °F -11.1 °F 1026.0 in NNW 5.1 mph 5.6 mph 91% 0.0 in WeatherDisplay:10.37 W/m2 FEW
17:49 -9.9 °F -11.1 °F 1026.0 in NNW 6.0 mph 8.0 mph 91% 0.0 in WeatherDisplay:10.37 W/m2 FEW
17:54 -10.0 °F -11.2 °F 1026.0 in NNW 4.8 mph 5.6 mph 91% 0.0 in WeatherDisplay:10.37 W/m2 FEW
17:59 -10.1 °F -11.2 °F 1026.0 in NNW 6.1 mph 14.8 mph 91% 0.0 in WeatherDisplay:10.37 W/m2 FEW
18:04 -10.1 °F -11.3 °F 1026.0 in NNW 4.2 mph 13.0 mph 91% 0.0 in WeatherDisplay:10.37 W/m2 FEW
18:09 -10.2 °F -11.3 °F 1026.0 in NW 10.0 mph 17.7 mph 91% 0.0 in WeatherDisplay:10.37 W/m2 FEW
18:14 -10.2 °F -11.4 °F 1026.0 in NNW 6.3 mph 7.4 mph 91% 0.0 in WeatherDisplay:10.37 W/m2 FEW
18:19 -10.2 °F -11.4 °F 1026.0 in NNW 7.1 mph 14.8 mph 91% 0.0 in WeatherDisplay:10.37 W/m2 FEW
18:24 -10.3 °F -11.4 °F 1026.0 in NW 1.9 mph 5.6 mph 91% 0.0 in WeatherDisplay:10.37 W/m2 FEW
18:29 -10.3 °F -11.4 °F 1026.0 in NNW 6.0 mph 14.8 mph 91% 0.0 in WeatherDisplay:10.37 W/m2 FEW
18:34 -10.3 °F -11.5 °F 1026.0 in NNW 1.1 mph 9.3 mph 91% 0.0 in WeatherDisplay:10.37 W/m2 FEW
18:39 -10.3 °F -11.5 °F 1026.0 in NNW 5.6 mph 7.4 mph 91% 0.0 in WeatherDisplay:10.37 W/m2 FEW
18:44 -10.4 °F -11.6 °F 1026.3 in NNW 5.6 mph 7.4 mph 91% 0.0 in WeatherDisplay:10.37 W/m2 FEW
18:49 -10.4 °F -11.6 °F 1026.0 in NNW 2.7 mph 5.6 mph 91% 0.0 in WeatherDisplay:10.37 W/m2 FEW
18:54 -10.4 °F -11.6 °F 1026.0 in NNW 6.4 mph 8.0 mph 91% 0.0 in WeatherDisplay:10.37 W/m2 FEW
18:59 -10.4 °F -11.6 °F 1026.3 in NNW 5.0 mph 7.4 mph 91% 0.0 in WeatherDisplay:10.37 W/m2 FEW
19:04 -10.5 °F -11.7 °F 1026.3 in NNW 3.1 mph 7.4 mph 91% 0.0 in WeatherDisplay:10.37 W/m2 FEW
19:09 -10.5 °F -11.7 °F 1026.3 in NW 2.9 mph 9.3 mph 91% 0.0 in WeatherDisplay:10.37 W/m2 FEW
19:14 -10.5 °F -11.6 °F 1026.3 in NNW 5.5 mph 13.0 mph 92% 0.0 in WeatherDisplay:10.37 W/m2 FEW
19:19 -10.4 °F -11.5 °F 1026.3 in NNW 5.8 mph 13.0 mph 92% 0.0 in WeatherDisplay:10.37 W/m2 FEW
19:24 -10.4 °F -11.6 °F 1026.6 in NW 5.3 mph 7.4 mph 91% 0.0 in WeatherDisplay:10.37 W/m2 FEW
19:29 -10.4 °F -11.6 °F 1026.6 in NW 5.3 mph 9.3 mph 91% 0.0 in WeatherDisplay:10.37 W/m2 FEW
19:34 -10.3 °F -11.5 °F 1026.6 in NNW 5.6 mph 7.4 mph 91% 0.0 in WeatherDisplay:10.37 W/m2 FEW
19:39 -10.3 °F -11.5 °F 1026.6 in NNW 8.7 mph 14.8 mph 91% 0.0 in WeatherDisplay:10.37 W/m2 FEW
19:44 -10.3 °F -11.5 °F 1026.6 in NNW 6.8 mph 13.0 mph 91% 0.0 in WeatherDisplay:10.37 W/m2 FEW
19:49 -10.3 °F -11.5 °F 1026.6 in NNW 9.2 mph 14.8 mph 91% 0.0 in WeatherDisplay:10.37 W/m2 FEW
19:54 -10.3 °F -11.5 °F 1026.6 in NNW 6.3 mph 7.4 mph 91% 0.0 in WeatherDisplay:10.37 W/m2 FEW
19:59 -10.3 °F -11.5 °F 1026.6 in NNW 5.0 mph 14.8 mph 91% 0.0 in WeatherDisplay:10.37 W/m2 FEW
20:04 -10.3 °F -11.5 °F 1027.0 in NW 6.3 mph 13.0 mph 91% 0.0 in WeatherDisplay:10.37 W/m2 FEW
20:09 -10.3 °F -11.5 °F 1027.0 in NNW 9.7 mph 16.7 mph 91% 0.0 in WeatherDisplay:10.37 W/m2 FEW
20:14 -10.3 °F -11.4 °F 1026.6 in NW 7.1 mph 14.8 mph 91% 0.0 in WeatherDisplay:10.37 W/m2 FEW
20:19 -10.3 °F -11.4 °F 1026.6 in NNW 6.8 mph 17.7 mph 91% 0.0 in WeatherDisplay:10.37 W/m2 FEW
20:24 -10.3 °F -11.4 °F 1027.0 in NNW 6.0 mph 9.3 mph 91% 0.0 in WeatherDisplay:10.37 W/m2 FEW
20:29 -10.3 °F -11.4 °F 1026.6 in North 8.7 mph 13.0 mph 91% 0.0 in WeatherDisplay:10.37 W/m2 FEW
20:34 -10.3 °F -11.5 °F 1026.6 in NNW 9.7 mph 14.8 mph 91% 0.0 in WeatherDisplay:10.37 W/m2 FEW
20:39 -10.3 °F -11.5 °F 1027.0 in NNW 7.4 mph 16.1 mph 91% 0.0 in WeatherDisplay:10.37 W/m2 FEW
20:44 -10.3 °F -11.5 °F 1027.0 in NW 4.0 mph 9.7 mph 91% 0.0 in WeatherDisplay:10.37 W/m2 FEW
20:50 -10.4 °F -11.6 °F 1027.0 in NNW 6.3 mph 9.3 mph 91% 0.0 in WeatherDisplay:10.37 W/m2 FEW
20:55 -10.4 °F -11.6 °F 1027.0 in North 5.8 mph 9.7 mph 91% 0.0 in WeatherDisplay:10.37 W/m2 FEW
21:00 -10.4 °F -11.6 °F 1027.0 in NNW 7.1 mph 14.8 mph 91% 0.0 in WeatherDisplay:10.37 W/m2 FEW
21:05 -10.4 °F -11.6 °F 1027.0 in NNW 8.2 mph 13.0 mph 91% 0.0 in WeatherDisplay:10.37 W/m2 FEW
21:10 -10.6 °F -11.7 °F 1027.0 in NNW 5.6 mph 9.3 mph 91% 0.0 in WeatherDisplay:10.37 W/m2 FEW
21:15 -10.6 °F -11.7 °F 1027.0 in NNW 4.7 mph 7.4 mph 91% 0.0 in WeatherDisplay:10.37 W/m2 FEW
21:20 -10.6 °F -11.8 °F 1027.0 in NW 6.4 mph 13.0 mph 91% 0.0 in WeatherDisplay:10.37 W/m2 FEW
21:25 -10.6 °F -11.8 °F 1027.0 in NNW 4.8 mph 7.4 mph 91% 0.0 in WeatherDisplay:10.37 W/m2 FEW
21:30 -10.7 °F -11.8 °F 1027.0 in NNW 4.8 mph 13.0 mph 91% 0.0 in WeatherDisplay:10.37 W/m2 FEW
21:35 -10.7 °F -11.9 °F 1027.0 in NW 5.6 mph 7.4 mph 91% 0.0 in WeatherDisplay:10.37 W/m2 FEW
21:40 -10.7 °F -11.9 °F 1027.3 in NNW 6.6 mph 9.3 mph 91% 0.0 in WeatherDisplay:10.37 W/m2 FEW
21:45 -10.7 °F -11.9 °F 1027.0 in NW 4.0 mph 9.7 mph 91% 0.0 in WeatherDisplay:10.37 W/m2 FEW
21:50 -10.8 °F -11.9 °F 1027.3 in NNW 6.4 mph 14.8 mph 91% 0.0 in WeatherDisplay:10.37 W/m2 FEW
21:55 -10.8 °F -12.0 °F 1027.0 in NNW 7.6 mph 9.3 mph 91% 0.0 in WeatherDisplay:10.37 W/m2 FEW
22:00 -10.9 °F -12.1 °F 1027.0 in NW 6.6 mph 13.0 mph 91% 0.0 in WeatherDisplay:10.37 W/m2 FEW
22:05 -10.9 °F -12.1 °F 1027.0 in NNW 6.8 mph 13.0 mph 91% 0.0 in WeatherDisplay:10.37 W/m2 FEW
22:10 -10.9 °F -12.1 °F 1027.0 in NNW 6.8 mph 14.8 mph 91% 0.0 in WeatherDisplay:10.37 W/m2 FEW
22:15 -10.9 °F -12.1 °F 1027.0 in NNW 7.7 mph 9.7 mph 91% 0.0 in WeatherDisplay:10.37 W/m2 FEW
22:20 -11.0 °F -12.2 °F 1027.0 in NNW 3.7 mph 9.3 mph 91% 0.0 in WeatherDisplay:10.37 W/m2 FEW
22:25 -11.1 °F -12.2 °F 1027.3 in NNW 6.6 mph 9.3 mph 91% 0.0 in WeatherDisplay:10.37 W/m2 FEW
22:30 -11.0 °F -12.2 °F 1027.0 in NNW 6.1 mph 13.0 mph 91% 0.0 in WeatherDisplay:10.37 W/m2 FEW
22:36 -11.0 °F -12.2 °F 1027.3 in NNW 2.6 mph 7.4 mph 91% 0.0 in WeatherDisplay:10.37 W/m2 FEW
22:41 -11.1 °F -12.2 °F 1027.3 in NNW 4.5 mph 5.6 mph 91% 0.0 in WeatherDisplay:10.37 W/m2 FEW
22:46 -11.1 °F -12.2 °F 1027.3 in NNW 4.5 mph 9.3 mph 91% 0.0 in WeatherDisplay:10.37 W/m2 FEW
22:51 -11.2 °F -12.3 °F 1027.3 in NNW 3.5 mph 5.6 mph 91% 0.0 in WeatherDisplay:10.37 W/m2 FEW
22:56 -11.1 °F -12.3 °F 1027.3 in NNW 4.5 mph 8.0 mph 91% 0.0 in WeatherDisplay:10.37 W/m2 FEW
23:01 -11.1 °F -12.2 °F 1027.3 in NNW 6.1 mph 13.0 mph 92% 0.0 in WeatherDisplay:10.37 W/m2 FEW
23:06 -11.1 °F -12.1 °F 1027.3 in NNW 7.7 mph 14.5 mph 92% 0.0 in WeatherDisplay:10.37 W/m2 FEW
23:11 -11.0 °F -12.1 °F 1027.3 in NNW 5.5 mph 9.3 mph 92% 0.0 in WeatherDisplay:10.37 W/m2 FEW
23:16 -10.9 °F -12.0 °F 1027.3 in NNW 5.3 mph 9.7 mph 92% 0.0 in WeatherDisplay:10.37 W/m2 FEW
23:21 -10.9 °F -11.9 °F 1027.3 in NW 5.6 mph 14.8 mph 92% 0.0 in WeatherDisplay:10.37 W/m2 FEW
23:26 -10.9 °F -12.1 °F 1027.0 in NNW 7.1 mph 8.0 mph 91% 0.0 in WeatherDisplay:10.37 W/m2 FEW
23:31 -10.9 °F -12.1 °F 1027.0 in NNW 5.5 mph 14.5 mph 91% 0.0 in WeatherDisplay:10.37 W/m2 FEW
23:36 -10.9 °F -12.1 °F 1027.0 in NNW 5.5 mph 13.0 mph 91% 0.0 in WeatherDisplay:10.37 W/m2 FEW
23:41 -10.8 °F -12.0 °F 1027.3 in NNW 6.0 mph 9.3 mph 91% 0.0 in WeatherDisplay:10.37 W/m2 FEW
23:46 -10.9 °F -12.1 °F 1027.3 in North 7.9 mph 9.3 mph 91% 0.0 in WeatherDisplay:10.37 W/m2 FEW
23:51 -10.9 °F -12.1 °F 1027.3 in NNW 5.8 mph 16.7 mph 91% 0.0 in WeatherDisplay:10.37 W/m2 FEW
23:56 -10.8 °F -12.0 °F 1027.3 in NNW 8.7 mph 9.3 mph 91% 0.0 in WeatherDisplay:10.37 W/m2 FEW
Tuulensuunkaari, Veikkola, Suomi
Compliments of Weather Underground - 2.75 mb